Time;durP1;ratioP1;P1;durP2;ratioP2;P2;SDS_P1;SDS_P2;PMS_P1;PMS_P2;Temp;Humidity;BMP_temperature;BMP_pressure;BME280_temperature;BME280_humidity;BME280_pressure;Samples;Min_cycle;Max_cycle;Signal;HPM_P1;HPM_P2
2022/07/17 00:02:35;;;;;;;6.72;2.92;;;15.00;99.90;;;;;;9181779;19;20038;-67
2022/07/17 00:05:41;;;;;;;9.60;4.22;;;14.90;99.90;;;;;;9181386;19;20048;-67
2022/07/17 00:08:46;;;;;;;6.82;3.25;;;15.10;99.90;;;;;;9181738;19;20018;-67
2022/07/17 00:11:50;;;;;;;8.55;2.75;;;14.80;99.90;;;;;;9180703;19;20006;-67
2022/07/17 00:14:53;;;;;;;6.03;2.42;;;15.10;99.90;;;;;;9179819;19;20020;-67
2022/07/17 00:17:58;;;;;;;4.22;2.33;;;14.90;99.90;;;;;;9179393;19;20010;-67
2022/07/17 00:21:05;;;;;;;5.35;2.40;;;15.50;99.90;;;;;;9179620;19;20018;-66
2022/07/17 00:24:10;;;;;;;6.28;2.60;;;14.90;99.90;;;;;;9183128;19;20018;-67
2022/07/17 00:27:14;;;;;;;7.45;2.28;;;14.70;99.90;;;;;;9181073;19;20021;-67
2022/07/17 00:30:21;;;;;;;5.80;2.25;;;14.90;99.90;;;;;;9181041;19;20074;-67
2022/07/17 00:33:24;;;;;;;8.70;2.05;;;14.70;99.90;;;;;;9179952;19;20018;-67
2022/07/17 00:36:31;;;;;;;5.95;1.95;;;14.50;99.90;;;;;;9184052;19;20491;-67
2022/07/17 00:39:35;;;;;;;6.07;1.95;;;14.50;99.90;;;;;;9185222;19;20044;-68
2022/07/17 00:42:42;;;;;;;4.90;2.10;;;14.50;99.90;;;;;;9180378;19;20535;-67
2022/07/17 00:45:45;;;;;;;6.07;1.73;;;14.60;99.90;;;;;;9180500;19;20015;-67
2022/07/17 00:48:49;;;;;;;3.65;1.70;;;14.80;99.90;;;;;;9181016;19;20015;-66
2022/07/17 00:51:56;;;;;;;4.18;1.77;;;15.00;99.90;;;;;;9180853;19;20078;-67
2022/07/17 00:55:01;;;;;;;4.72;1.70;;;14.50;99.90;;;;;;9178307;19;20017;-67
2022/07/17 00:58:07;;;;;;;4.30;1.75;;;14.50;99.90;;;;;;9179588;19;20021;-67
2022/07/17 01:01:11;;;;;;;6.47;1.80;;;14.50;99.90;;;;;;9179363;19;20017;-67
2022/07/17 01:04:16;;;;;;;7.80;1.90;;;14.80;99.90;;;;;;9184496;19;20041;-67
2022/07/17 01:07:22;;;;;;;5.90;1.98;;;14.80;99.90;;;;;;9181793;19;20094;-67
2022/07/17 01:10:26;;;;;;;5.55;1.80;;;14.50;99.90;;;;;;9178778;19;20018;-67
2022/07/17 01:13:30;;;;;;;5.55;1.83;;;14.40;99.90;;;;;;9179037;19;20361;-67
2022/07/17 01:16:36;;;;;;;14.63;2.60;;;14.40;99.90;;;;;;9179335;19;20018;-67
2022/07/17 01:19:40;;;;;;;8.68;2.97;;;14.00;99.90;;;;;;9177726;19;20015;-67
2022/07/17 01:22:48;;;;;;;9.80;3.80;;;14.30;99.90;;;;;;9176228;19;20354;-67
2022/07/17 01:25:52;;;;;;;12.65;3.10;;;14.40;99.90;;;;;;9179022;19;20411;-67
2022/07/17 01:28:56;;;;;;;6.85;3.35;;;13.80;99.90;;;;;;9178887;19;20017;-67
2022/07/17 01:31:59;;;;;;;9.45;3.40;;;14.10;99.90;;;;;;9179646;19;20015;-67
2022/07/17 01:35:04;;;;;;;11.45;3.33;;;14.10;99.90;;;;;;9178686;19;20019;-67
2022/07/17 01:38:10;;;;;;;10.10;4.10;;;13.80;99.90;;;;;;9178160;19;20017;-67
2022/07/17 01:41:14;;;;;;;7.13;3.10;;;14.10;99.90;;;;;;9183849;19;20078;-67
2022/07/17 01:44:18;;;;;;;7.05;2.55;;;14.00;99.90;;;;;;9178363;19;20025;-67
2022/07/17 01:47:22;;;;;;;4.85;2.47;;;14.00;99.90;;;;;;9177634;19;20430;-67
2022/07/17 01:50:26;;;;;;;5.47;2.45;;;13.90;99.90;;;;;;9178701;19;20011;-66
2022/07/17 01:53:33;;;;;;;6.18;2.30;;;13.80;99.90;;;;;;9177576;19;20031;-67
2022/07/17 01:56:37;;;;;;;6.60;2.25;;;13.80;99.90;;;;;;9178803;19;20462;-67
2022/07/17 01:59:42;;;;;;;4.60;2.00;;;13.50;99.90;;;;;;9177561;19;20030;-67
2022/07/17 02:02:46;;;;;;;3.90;2.20;;;13.50;99.90;;;;;;9180091;19;20025;-67
2022/07/17 02:05:50;;;;;;;6.85;2.22;;;13.60;99.90;;;;;;9177355;19;20007;-66
2022/07/17 02:08:57;;;;;;;7.35;2.45;;;13.40;99.90;;;;;;9174737;19;20010;-66
2022/07/17 02:12:01;;;;;;;4.63;2.42;;;13.60;99.90;;;;;;9177007;19;20044;-67
2022/07/17 02:15:05;;;;;;;5.28;2.30;;;13.50;99.90;;;;;;9175188;19;20006;-67
2022/07/17 02:18:09;;;;;;;6.32;2.70;;;13.40;99.90;;;;;;9177296;19;20014;-66
2022/07/17 02:21:13;;;;;;;8.13;2.80;;;13.50;99.90;;;;;;9173690;19;20093;-66
2022/07/17 02:24:19;;;;;;;7.13;2.58;;;13.40;99.90;;;;;;9176604;19;20471;-67
2022/07/17 02:27:23;;;;;;;6.10;2.95;;;13.40;99.90;;;;;;9176293;19;20070;-66
2022/07/17 02:30:27;;;;;;;9.23;3.00;;;13.50;99.90;;;;;;9177698;19;20021;-67
2022/07/17 02:33:31;;;;;;;9.23;3.33;;;13.40;99.90;;;;;;9180164;19;20018;-68
2022/07/17 02:36:35;;;;;;;4.90;2.45;;;13.60;99.90;;;;;;9185469;19;20018;-66
2022/07/17 02:39:52;;;;;;;4.30;2.42;;;13.40;99.90;;;;;;9185760;19;20011;-66
2022/07/17 02:42:55;;;;;;;8.75;2.60;;;13.50;99.90;;;;;;9185236;19;20014;-67
2022/07/17 02:45:59;;;;;;;10.23;2.80;;;13.30;99.90;;;;;;9188989;19;20021;-67
2022/07/17 02:49:03;;;;;;;5.50;2.60;;;;;;;;;;9184326;19;20014;-66
2022/07/17 02:52:07;;;;;;;9.43;3.03;;;13.30;99.90;;;;;;9184676;19;20018;-67
2022/07/17 02:55:14;;;;;;;6.07;2.50;;;13.30;99.90;;;;;;9182679;19;20015;-67
2022/07/17 02:58:19;;;;;;;8.85;3.20;;;13.30;99.90;;;;;;9185275;19;20018;-67
2022/07/17 03:01:23;;;;;;;4.88;2.95;;;13.30;99.90;;;;;;9189360;19;20098;-66
2022/07/17 03:04:27;;;;;;;6.35;3.00;;;;;;;;;;9184288;19;20070;-67
2022/07/17 03:07:31;;;;;;;6.43;2.75;;;;;;;;;;9183246;19;20373;-67
2022/07/17 03:10:37;;;;;;;6.97;3.03;;;13.20;99.90;;;;;;9183825;19;20048;-66
2022/07/17 03:13:41;;;;;;;7.13;3.00;;;13.10;99.90;;;;;;9186858;19;20017;-67
2022/07/17 03:16:45;;;;;;;6.30;2.78;;;13.10;99.90;;;;;;9183791;19;20078;-67
2022/07/17 03:19:49;;;;;;;6.22;2.80;;;;;;;;;;9185726;19;20006;-66
2022/07/17 03:22:53;;;;;;;6.20;2.67;;;13.00;99.90;;;;;;9184011;19;20403;-67
2022/07/17 03:26:00;;;;;;;9.05;3.15;;;13.00;99.90;;;;;;9182544;19;20555;-67
2022/07/17 03:29:04;;;;;;;7.55;3.05;;;13.10;99.90;;;;;;9183790;19;20038;-66
2022/07/17 03:32:08;;;;;;;6.47;2.90;;;12.90;99.90;;;;;;9184230;19;20489;-66
2022/07/17 03:35:12;;;;;;;5.95;2.90;;;12.90;99.90;;;;;;9181743;19;20015;-67
2022/07/17 03:38:16;;;;;;;7.80;2.80;;;12.80;99.90;;;;;;9183569;19;20014;-66
2022/07/17 03:41:23;;;;;;;5.63;3.00;;;12.80;99.90;;;;;;9182877;19;20011;-66
2022/07/17 03:44:26;;;;;;;16.77;3.53;;;12.90;99.90;;;;;;9185997;19;20026;-67
2022/07/17 03:47:30;;;;;;;6.13;2.90;;;12.80;99.90;;;;;;9181821;19;20074;-66
2022/07/17 03:50:34;;;;;;;7.47;3.40;;;;;;;;;;9182452;19;20395;-67
2022/07/17 03:53:38;;;;;;;7.72;2.95;;;;;;;;;;9185167;19;20011;-67
2022/07/17 03:56:45;;;;;;;6.38;3.10;;;12.70;99.90;;;;;;9179660;19;20021;-66
2022/07/17 03:59:50;;;;;;;6.43;2.80;;;;;;;;;;9184990;19;20090;-67
2022/07/17 04:02:54;;;;;;;4.55;2.83;;;12.80;99.90;;;;;;9181736;19;20021;-66
2022/07/17 04:05:58;;;;;;;5.72;3.17;;;12.80;99.90;;;;;;9182166;19;20014;-66
2022/07/17 04:09:02;;;;;;;6.60;2.70;;;12.70;99.90;;;;;;9179034;19;20014;-67
2022/07/17 04:12:09;;;;;;;10.93;3.20;;;12.60;99.90;;;;;;9181848;19;20015;-66
2022/07/17 04:15:48;;;;;;;6.90;3.22;;;12.70;99.90;;;;;;9179506;19;20364;-66
2022/07/17 04:18:39;;;;;;;8.60;3.08;;;12.80;99.90;;;;;;9180205;19;20369;-67
2022/07/17 04:21:43;;;;;;;8.27;3.30;;;12.70;99.90;;;;;;9180929;19;20015;-66
2022/07/17 04:24:48;;;;;;;6.07;2.90;;;12.70;99.90;;;;;;9182331;19;20018;-66
2022/07/17 04:27:54;;;;;;;9.73;3.00;;;12.70;99.90;;;;;;9180842;19;20107;-67
2022/07/17 04:30:58;;;;;;;8.90;3.22;;;12.80;99.90;;;;;;9182309;19;20014;-67
2022/07/17 04:34:02;;;;;;;7.25;3.17;;;12.80;99.90;;;;;;9181550;19;20014;-66
2022/07/17 04:37:06;;;;;;;7.10;3.17;;;12.80;99.90;;;;;;9177982;19;20015;-66
2022/07/17 04:40:12;;;;;;;8.75;3.47;;;12.80;99.90;;;;;;9180677;19;20486;-66
2022/07/17 04:43:18;;;;;;;7.97;3.00;;;12.90;99.90;;;;;;9180255;19;20021;-66
2022/07/17 04:46:22;;;;;;;7.35;3.08;;;12.80;99.90;;;;;;9179976;19;20021;-66
2022/07/17 04:49:26;;;;;;;6.90;2.88;;;12.90;99.90;;;;;;9181180;19;20018;-66
2022/07/17 04:52:31;;;;;;;8.57;2.97;;;13.00;99.90;;;;;;9179742;19;20525;-66
2022/07/17 04:55:34;;;;;;;8.80;2.80;;;13.00;99.90;;;;;;9178415;19;20007;-66
2022/07/17 04:58:41;;;;;;;8.68;3.00;;;12.90;99.90;;;;;;9181888;19;20026;-66
2022/07/17 05:01:45;;;;;;;8.05;2.90;;;12.90;99.90;;;;;;9179294;19;20070;-66
2022/07/17 05:04:49;;;;;;;6.40;3.08;;;12.90;99.90;;;;;;9183238;19;20014;-67
2022/07/17 05:07:53;;;;;;;6.75;2.80;;;12.70;99.90;;;;;;9178464;19;20014;-67
2022/07/17 05:10:57;;;;;;;9.73;2.78;;;12.60;99.90;;;;;;9178900;19;20007;-67
2022/07/17 05:14:04;;;;;;;8.18;2.55;;;13.20;99.90;;;;;;9178692;19;20475;-66
2022/07/17 05:17:08;;;;;;;7.43;3.00;;;13.00;99.90;;;;;;9177314;19;20412;-66
2022/07/17 05:20:12;;;;;;;8.70;2.75;;;13.00;99.90;;;;;;9177655;19;20086;-67
2022/07/17 05:23:16;;;;;;;11.30;3.15;;;13.10;99.90;;;;;;9178685;19;20030;-67
2022/07/17 05:26:20;;;;;;;7.35;2.70;;;13.20;99.90;;;;;;9176991;19;20011;-67
2022/07/17 05:29:27;;;;;;;5.88;2.58;;;13.10;99.90;;;;;;9179403;19;20018;-66
2022/07/17 05:32:31;;;;;;;10.30;2.75;;;13.20;99.90;;;;;;9178238;19;20014;-67
2022/07/17 05:35:34;;;;;;;9.07;2.80;;;13.30;99.90;;;;;;9177644;19;20508;-67
2022/07/17 05:38:39;;;;;;;5.82;2.63;;;13.20;99.90;;;;;;9178100;19;20031;-66
2022/07/17 05:41:43;;;;;;;7.47;2.42;;;13.30;99.90;;;;;;9180494;19;20019;-66
2022/07/17 05:44:49;;;;;;;8.00;2.67;;;13.10;99.90;;;;;;9177865;19;20010;-66
2022/07/17 05:47:53;;;;;;;9.98;3.13;;;13.30;99.90;;;;;;9177447;19;20022;-67
2022/07/17 05:50:57;;;;;;;7.85;2.70;;;13.30;99.90;;;;;;9182913;19;20081;-67
2022/07/17 05:54:01;;;;;;;7.80;3.00;;;13.40;99.90;;;;;;9177780;19;20026;-67
2022/07/17 05:57:05;;;;;;;7.07;2.85;;;13.50;99.90;;;;;;9179762;19;20090;-67
2022/07/17 06:00:13;;;;;;;7.82;2.92;;;13.40;99.90;;;;;;9178639;19;20010;-67
2022/07/17 06:03:18;;;;;;;8.48;3.28;;;;;;;;;;9179050;19;20011;-66
2022/07/17 06:06:22;;;;;;;9.07;2.67;;;;;;;;;;9177182;19;20015;-67
2022/07/17 06:09:26;;;;;;;6.88;2.67;;;13.40;99.90;;;;;;9182399;19;20013;-67
2022/07/17 06:12:30;;;;;;;5.47;2.75;;;13.20;99.90;;;;;;9185865;19;20083;-68
2022/07/17 06:15:36;;;;;;;8.07;2.40;;;13.40;99.90;;;;;;9185390;19;20014;-67
2022/07/17 06:18:40;;;;;;;7.50;2.38;;;13.40;99.90;;;;;;9186813;19;20007;-66
2022/07/17 06:21:44;;;;;;;4.78;2.00;;;13.50;99.90;;;;;;9186103;19;20077;-67
2022/07/17 06:24:48;;;;;;;7.32;2.30;;;13.50;99.90;;;;;;9187550;19;20400;-67
2022/07/17 06:27:52;;;;;;;8.65;2.05;;;;;;;;;;9186433;19;20033;-67
2022/07/17 06:30:59;;;;;;;7.57;1.95;;;13.70;99.90;;;;;;9185605;19;20070;-67
2022/07/17 06:34:03;;;;;;;7.22;2.15;;;13.70;99.90;;;;;;9186081;19;20021;-66
2022/07/17 06:37:07;;;;;;;7.70;2.63;;;14.00;99.90;;;;;;9182848;19;20010;-67
2022/07/17 06:40:11;;;;;;;10.57;2.58;;;13.80;99.90;;;;;;9185306;19;20014;-66
2022/07/17 06:43:14;;;;;;;6.53;1.90;;;14.10;99.90;;;;;;9188103;19;20022;-67
2022/07/17 06:46:21;;;;;;;7.68;2.13;;;14.30;99.90;;;;;;9184974;19;20476;-66
2022/07/17 06:49:25;;;;;;;7.45;2.13;;;14.10;99.90;;;;;;9184812;19;20022;-67
2022/07/17 06:52:29;;;;;;;7.03;2.20;;;13.80;99.90;;;;;;9186796;19;20353;-66
2022/07/17 06:55:33;;;;;;;3.78;1.98;;;14.30;99.90;;;;;;9187413;19;20029;-67
2022/07/17 06:58:37;;;;;;;7.28;1.95;;;14.40;99.90;;;;;;9184394;19;20011;-65
2022/07/17 07:01:43;;;;;;;6.90;1.98;;;14.20;99.90;;;;;;9184620;19;20006;-67
2022/07/17 07:04:48;;;;;;;5.82;1.65;;;14.40;99.90;;;;;;9184081;19;20055;-67
2022/07/17 07:07:52;;;;;;;6.72;1.83;;;14.30;99.90;;;;;;9182544;19;20007;-66
2022/07/17 07:10:56;;;;;;;5.90;1.70;;;14.40;99.90;;;;;;9184037;19;20010;-67
2022/07/17 07:14:00;;;;;;;4.93;1.80;;;14.40;99.90;;;;;;9184124;19;20159;-67
2022/07/17 07:17:07;;;;;;;10.60;2.15;;;14.50;99.90;;;;;;9181277;19;20033;-67
2022/07/17 07:20:13;;;;;;;7.75;1.90;;;14.50;99.90;;;;;;9179951;19;20011;-66
2022/07/17 07:23:17;;;;;;;6.35;1.80;;;14.60;99.90;;;;;;9184812;19;20023;-67
2022/07/17 07:26:21;;;;;;;5.43;1.77;;;14.60;99.90;;;;;;9183575;19;20010;-67
2022/07/17 07:29:25;;;;;;;8.23;2.00;;;14.70;99.90;;;;;;9188057;19;20509;-66
2022/07/17 07:32:31;;;;;;;5.80;1.60;;;14.70;99.90;;;;;;9183334;19;20029;-67
2022/07/17 07:35:35;;;;;;;6.55;1.70;;;14.80;99.90;;;;;;9182534;19;20011;-67
2022/07/17 07:38:39;;;;;;;6.88;2.08;;;14.60;99.90;;;;;;9182827;19;20019;-67
2022/07/17 07:41:44;;;;;;;8.38;1.67;;;14.80;99.90;;;;;;9182879;19;20014;-67
2022/07/17 07:44:47;;;;;;;5.40;1.70;;;14.90;99.90;;;;;;9184404;19;20022;-67
2022/07/17 07:47:54;;;;;;;5.00;1.75;;;15.00;99.90;;;;;;9182084;19;20487;-67
2022/07/17 07:50:58;;;;;;;4.20;2.03;;;15.10;99.90;;;;;;9183911;19;20082;-68
2022/07/17 07:54:02;;;;;;;5.75;1.67;;;15.10;99.90;;;;;;9185443;19;20085;-68
2022/07/17 07:57:06;;;;;;;4.47;1.67;;;15.10;99.90;;;;;;9180302;19;20467;-68
2022/07/17 08:00:13;;;;;;;5.57;1.65;;;15.30;99.90;;;;;;9182314;19;20010;-68
2022/07/17 08:03:19;;;;;;;;;;;15.20;99.90;;;;;;9182667;19;20018;-68
2022/07/17 08:06:24;;;;;;;3.33;1.63;;;15.20;99.90;;;;;;9184376;19;19948;-68
2022/07/17 08:09:28;;;;;;;4.75;1.60;;;15.20;99.90;;;;;;9181285;19;20015;-68
2022/07/17 08:12:32;;;;;;;7.10;2.03;;;15.40;99.90;;;;;;9181802;19;20021;-68
2022/07/17 08:15:36;;;;;;;5.22;1.50;;;15.70;99.90;;;;;;9180481;19;20514;-68
2022/07/17 08:18:42;;;;;;;7.55;1.92;;;15.30;99.90;;;;;;9180477;19;20340;-68
2022/07/17 08:21:46;;;;;;;5.13;2.00;;;15.30;99.90;;;;;;9178541;19;20051;-68
2022/07/17 08:24:50;;;;;;;5.15;1.80;;;15.20;99.90;;;;;;9178957;19;20479;-68
2022/07/17 08:27:54;;;;;;;5.78;1.92;;;15.40;99.90;;;;;;9180568;19;20010;-68
2022/07/17 08:30:58;;;;;;;5.30;1.70;;;15.30;99.90;;;;;;9180749;19;20015;-68
2022/07/17 08:34:05;;;;;;;6.20;2.00;;;15.40;99.90;;;;;;9181746;19;20105;-68
2022/07/17 08:37:09;;;;;;;5.13;1.85;;;15.30;99.90;;;;;;9182817;19;20379;-68
2022/07/17 08:40:19;;;;;;;8.32;2.10;;;15.40;99.90;;;;;;9180465;19;20021;-68
2022/07/17 08:43:23;;;;;;;5.65;2.05;;;15.30;99.90;;;;;;9180435;19;20025;-67
2022/07/17 08:46:29;;;;;;;6.60;2.50;;;15.30;99.90;;;;;;9183897;19;20022;-68
2022/07/17 08:49:38;;;;;;;7.95;2.30;;;15.50;99.90;;;;;;9179323;19;20022;-68
2022/07/17 08:52:44;;;;;;;9.45;1.80;;;15.60;99.90;;;;;;9182973;19;20010;-68
2022/07/17 08:55:48;;;;;;;5.72;3.20;;;15.60;99.90;;;;;;9179449;19;20007;-68
2022/07/17 08:58:52;;;;;;;6.03;1.80;;;15.60;99.90;;;;;;9183505;19;20014;-68
2022/07/17 09:01:56;;;;;;;5.05;1.70;;;15.60;99.90;;;;;;9179683;19;20010;-68
2022/07/17 09:05:03;;;;;;;7.90;1.92;;;15.70;99.90;;;;;;9179460;19;20364;-68
2022/07/17 09:08:08;;;;;;;4.90;1.80;;;15.70;99.90;;;;;;9178053;19;20036;-68
2022/07/17 09:11:12;;;;;;;6.57;1.60;;;15.60;99.90;;;;;;9179573;19;20010;-68
2022/07/17 09:14:16;;;;;;;5.38;2.00;;;15.60;99.90;;;;;;9180058;19;20376;-68
2022/07/17 09:17:20;;;;;;;6.25;1.60;;;15.80;99.90;;;;;;9176971;19;20010;-68
2022/07/17 09:20:27;;;;;;;8.73;2.17;;;15.80;99.90;;;;;;9181708;19;20374;-68
2022/07/17 09:23:31;;;;;;;5.80;1.67;;;15.60;99.90;;;;;;9180740;19;20015;-69
2022/07/17 09:26:37;;;;;;;4.47;1.88;;;15.60;99.90;;;;;;9178509;19;20019;-67
2022/07/17 09:29:56;;;;;;;4.97;1.75;;;15.60;99.90;;;;;;9177421;19;20081;-68
2022/07/17 09:33:00;;;;;;;3.90;1.63;;;15.90;99.90;;;;;;9178348;19;20014;-68
2022/07/17 09:36:13;;;;;;;5.85;1.95;;;16.00;99.90;;;;;;9178963;19;20506;-68
2022/07/17 09:39:17;;;;;;;9.18;2.00;;;16.00;99.90;;;;;;9186517;19;20022;-69
2022/07/17 09:42:25;;;;;;;8.90;1.90;;;16.20;99.90;;;;;;9181722;19;20479;-70
2022/07/17 09:45:29;;;;;;;5.00;2.15;;;16.40;99.90;;;;;;9180071;19;20015;-68
2022/07/17 09:48:35;;;;;;;6.70;1.88;;;16.50;99.90;;;;;;9177945;19;20015;-68
2022/07/17 09:51:42;;;;;;;8.60;1.80;;;16.60;99.90;;;;;;9179596;19;20467;-68
2022/07/17 09:54:49;;;;;;;6.10;2.00;;;16.60;99.90;;;;;;9177386;19;20044;-68
2022/07/17 09:57:56;;;;;;;4.07;1.75;;;16.50;99.90;;;;;;9175623;19;20030;-68
2022/07/17 10:01:00;;;;;;;;;;;16.60;99.90;;;;;;9178348;19;20401;-68
2022/07/17 10:04:04;;;;;;;5.55;1.58;;;16.70;99.90;;;;;;9175936;19;19925;-68
2022/07/17 10:07:11;;;;;;;6.57;2.25;;;16.90;99.90;;;;;;9177157;19;20093;-68
2022/07/17 10:10:19;;;;;;;4.20;1.80;;;17.20;99.90;;;;;;9178660;19;20022;-68
2022/07/17 10:13:23;;;;;;;;;;;16.90;99.90;;;;;;9180211;19;20508;-68
2022/07/17 10:16:28;;;;;;;5.45;2.20;;;17.00;99.90;;;;;;9176004;19;19926;-68
2022/07/17 10:19:35;;;;;;;8.23;1.85;;;16.90;99.90;;;;;;9175518;19;20010;-68
2022/07/17 10:22:49;;;;;;;4.28;1.70;;;17.20;99.90;;;;;;9177602;19;20011;-68
2022/07/17 10:26:01;;;;;;;6.05;2.50;;;17.20;99.90;;;;;;9176962;19;20011;-68
2022/07/17 10:29:06;;;;;;;4.80;1.52;;;17.20;99.90;;;;;;9182268;19;20082;-68
2022/07/17 10:32:16;;;;;;;8.48;2.80;;;17.40;99.90;;;;;;9175044;19;20014;-68
2022/07/17 10:35:20;;;;;;;7.95;2.28;;;17.70;99.90;;;;;;9175153;19;20038;-68
2022/07/17 10:38:26;;;;;;;10.18;5.75;;;17.70;99.90;;;;;;9174163;19;20106;-68
2022/07/17 10:41:30;;;;;;;7.38;1.80;;;17.80;99.90;;;;;;9176957;19;20048;-68
2022/07/17 10:44:34;;;;;;;3.85;1.85;;;17.70;99.90;;;;;;9176003;19;20022;-68
2022/07/17 10:47:53;;;;;;;4.05;1.80;;;17.70;99.90;;;;;;9175347;19;20014;-69
2022/07/17 10:50:58;;;;;;;6.13;1.60;;;17.70;99.90;;;;;;9180731;19;20503;-68
2022/07/17 10:54:05;;;;;;;3.25;1.55;;;18.10;99.90;;;;;;9175613;19;20484;-69
2022/07/17 10:57:10;;;;;;;;;;;18.10;99.90;;;;;;9182352;19;20081;-68
2022/07/17 11:00:15;;;;;;;3.80;1.60;;;18.00;99.90;;;;;;9184604;19;19915;-68
2022/07/17 11:03:19;;;;;;;3.80;2.03;;;18.30;99.90;;;;;;9185924;19;20018;-69
2022/07/17 11:06:24;;;;;;;5.95;1.60;;;18.20;99.90;;;;;;9183966;19;20078;-68
2022/07/17 11:09:31;;;;;;;5.72;2.28;;;18.40;99.90;;;;;;9184517;19;20013;-69
2022/07/17 11:12:36;;;;;;;6.28;2.13;;;18.40;99.90;;;;;;9183663;19;20015;-69
2022/07/17 11:15:46;;;;;;;7.03;1.85;;;18.40;99.90;;;;;;9187208;19;20018;-68
2022/07/17 11:18:50;;;;;;;6.40;2.05;;;18.40;99.90;;;;;;9180003;19;20059;-68
2022/07/17 11:21:55;;;;;;;5.70;1.70;;;18.70;99.90;;;;;;9185592;19;20010;-69
2022/07/17 11:25:02;;;;;;;5.45;1.95;;;18.70;99.90;;;;;;9186832;19;20015;-68
2022/07/17 11:28:06;;;;;;;5.90;2.28;;;18.80;99.90;;;;;;9183365;19;20014;-67
2022/07/17 11:31:21;;;;;;;4.82;2.92;;;18.80;99.70;;;;;;9181926;19;20019;-68
2022/07/17 11:34:27;;;;;;;5.65;1.80;;;18.80;99.40;;;;;;9184071;19;20021;-68
2022/07/17 11:37:32;;;;;;;5.00;1.80;;;19.10;99.80;;;;;;9181151;19;20025;-67
2022/07/17 11:40:48;;;;;;;6.05;2.00;;;19.20;99.90;;;;;;9182813;19;20508;-69
2022/07/17 11:43:51;;;;;;;3.78;1.85;;;19.30;99.90;;;;;;9181705;19;20018;-69
2022/07/17 11:46:55;;;;;;;5.75;1.80;;;19.40;99.10;;;;;;9182704;19;20019;-67
2022/07/17 11:50:07;;;;;;;4.35;1.80;;;19.50;99.40;;;;;;9187384;19;20011;-67
2022/07/17 11:53:11;;;;;;;3.15;2.17;;;19.50;98.90;;;;;;9182880;19;20025;-66
2022/07/17 11:56:24;;;;;;;4.00;2.03;;;19.70;99.00;;;;;;9182397;19;20026;-66
2022/07/17 11:59:30;;;;;;;4.07;1.60;;;19.60;98.20;;;;;;9184058;19;20014;-67
2022/07/17 12:02:34;;;;;;;4.67;2.03;;;19.90;98.30;;;;;;9181957;19;20050;-67
2022/07/17 12:05:39;;;;;;;7.97;2.38;;;19.90;97.70;;;;;;9180944;19;20819;-67
2022/07/17 12:08:52;;;;;;;5.10;2.22;;;20.00;98.50;;;;;;9180400;19;20129;-67
2022/07/17 12:11:59;;;;;;;5.85;2.00;;;20.10;98.40;;;;;;9181730;19;20018;-67
2022/07/17 12:15:03;;;;;;;3.28;1.75;;;20.20;98.00;;;;;;9181216;19;20514;-67
2022/07/17 12:18:09;;;;;;;5.00;2.10;;;20.50;97.80;;;;;;9179549;19;20480;-67
2022/07/17 12:21:13;;;;;;;4.45;1.80;;;20.40;97.60;;;;;;9181835;19;20074;-67
2022/07/17 12:24:23;;;;;;;7.72;2.03;;;20.60;98.40;;;;;;9180678;19;20010;-67
2022/07/17 12:27:29;;;;;;;6.97;2.28;;;20.70;97.80;;;;;;9181101;19;20360;-66
2022/07/17 12:30:34;;;;;;;6.28;3.13;;;20.80;96.80;;;;;;9181186;19;20010;-68
2022/07/17 12:33:38;;;;;;;5.15;2.45;;;20.50;96.20;;;;;;9183048;19;20014;-67
2022/07/17 12:36:42;;;;;;;6.40;2.22;;;20.60;96.80;;;;;;9180417;19;20021;-67
2022/07/17 12:39:46;;;;;;;3.45;1.98;;;20.70;96.40;;;;;;9180831;19;20014;-67
2022/07/17 12:42:53;;;;;;;4.95;1.95;;;20.80;96.60;;;;;;9180302;19;20011;-68
2022/07/17 12:45:57;;;;;;;5.28;2.15;;;20.80;96.30;;;;;;9178425;19;20027;-67
2022/07/17 12:49:01;;;;;;;6.05;2.42;;;21.00;96.10;;;;;;9177938;19;20034;-67
2022/07/17 12:52:05;;;;;;;4.68;1.98;;;19.80;96.10;;;;;;9178962;19;20014;-67
2022/07/17 12:55:11;;;;;;;5.03;1.70;;;21.40;96.90;;;;;;9181246;19;20048;-67
2022/07/17 12:58:17;;;;;;;3.08;1.73;;;21.50;96.60;;;;;;9178439;19;20014;-67
2022/07/17 13:01:22;;;;;;;4.13;1.90;;;21.80;96.00;;;;;;9179433;19;20052;-67
2022/07/17 13:04:26;;;;;;;3.55;1.52;;;21.90;95.80;;;;;;9179197;19;20017;-67
2022/07/17 13:07:30;;;;;;;3.47;1.80;;;22.10;95.30;;;;;;9177713;19;20360;-67
2022/07/17 13:10:36;;;;;;;3.92;2.00;;;22.30;95.10;;;;;;9180129;19;20018;-67
2022/07/17 13:13:43;;;;;;;4.43;1.90;;;22.30;95.00;;;;;;9178896;19;20014;-67
2022/07/17 13:16:47;;;;;;;5.53;1.77;;;22.50;94.10;;;;;;9177577;19;20085;-68
2022/07/17 13:19:51;;;;;;;3.95;2.10;;;22.70;93.80;;;;;;9177879;19;20014;-67
2022/07/17 13:22:55;;;;;;;5.43;2.60;;;22.50;92.30;;;;;;9178287;19;20011;-66
2022/07/17 13:25:59;;;;;;;7.95;2.85;;;22.50;92.30;;;;;;9177836;19;20015;-67
2022/07/17 13:29:06;;;;;;;5.03;2.17;;;22.70;91.90;;;;;;9178421;19;20086;-66
2022/07/17 13:32:09;;;;;;;7.22;2.42;;;22.90;92.80;;;;;;9184177;19;20050;-67
2022/07/17 13:35:14;;;;;;;5.78;2.88;;;23.00;91.60;;;;;;9178931;19;20014;-67
2022/07/17 13:38:18;;;;;;;7.82;2.80;;;23.10;90.40;;;;;;9177438;19;20356;-67
2022/07/17 13:41:22;;;;;;;6.60;2.47;;;23.00;89.50;;;;;;9178138;19;20010;-67
2022/07/17 13:44:29;;;;;;;11.90;3.15;;;23.00;89.70;;;;;;9178724;19;20506;-67
2022/07/17 13:47:33;;;;;;;3.97;2.20;;;23.30;89.70;;;;;;9180167;19;20011;-67
2022/07/17 13:50:37;;;;;;;7.45;2.95;;;23.40;88.20;;;;;;9178193;19;20010;-68
2022/07/17 13:53:41;;;;;;;7.15;3.30;;;23.40;87.10;;;;;;9177719;19;20423;-67
2022/07/17 13:56:45;;;;;;;4.40;2.35;;;23.50;86.50;;;;;;9177601;19;20022;-67
2022/07/17 13:59:52;;;;;;;5.10;2.60;;;23.50;85.50;;;;;;9174514;19;20010;-68
2022/07/17 14:02:57;;;;;;;;;;;23.80;84.40;;;;;;9181699;19;20445;-67
2022/07/17 14:06:01;;;;;;;5.88;3.05;;;23.80;82.80;;;;;;9177109;19;19915;-67
2022/07/17 14:09:06;;;;;;;6.10;2.97;;;23.70;83.60;;;;;;9175281;19;20018;-67
2022/07/17 14:12:10;;;;;;;4.57;2.72;;;23.90;84.00;;;;;;9177223;19;20027;-68
2022/07/17 14:15:16;;;;;;;4.93;3.08;;;23.80;81.40;;;;;;9177730;19;20086;-67
2022/07/17 14:18:21;;;;;;;6.20;2.90;;;23.80;79.90;;;;;;9177463;19;20029;-67
2022/07/17 14:21:25;;;;;;;6.57;3.35;;;24.30;80.80;;;;;;9177553;19;20487;-68
2022/07/17 14:24:29;;;;;;;6.85;3.40;;;24.50;78.80;;;;;;9176270;19;20018;-67
2022/07/17 14:27:33;;;;;;;5.63;3.38;;;24.80;78.30;;;;;;9176778;19;20413;-68
2022/07/17 14:30:40;;;;;;;5.22;3.53;;;24.90;76.70;;;;;;9182629;19;20380;-68
2022/07/17 14:33:44;;;;;;;6.85;3.67;;;24.90;74.50;;;;;;9191199;19;20025;-68
2022/07/17 14:36:49;;;;;;;4.70;3.10;;;25.00;75.40;;;;;;9185232;19;20074;-68
2022/07/17 14:39:53;;;;;;;8.00;3.92;;;25.10;75.10;;;;;;9182498;19;20011;-68
2022/07/17 14:42:56;;;;;;;5.20;3.75;;;25.40;75.00;;;;;;9185116;19;20007;-68
2022/07/17 14:46:03;;;;;;;6.55;4.47;;;25.50;73.40;;;;;;9188583;19;20430;-69
2022/07/17 14:49:07;;;;;;;;;;;25.50;70.80;;;;;;9185331;19;20006;-68
2022/07/17 14:52:10;;;;;;;5.82;3.40;;;25.30;71.90;;;;;;9184242;19;19911;-70
2022/07/17 14:55:14;;;;;;;5.20;2.97;;;25.40;73.80;;;;;;9185334;19;20019;-68
2022/07/17 14:58:18;;;;;;;6.32;3.08;;;25.50;72.90;;;;;;9183143;19;20091;-69
2022/07/17 15:01:25;;;;;;;7.10;3.13;;;25.50;71.50;;;;;;9184049;19;20477;-68
2022/07/17 15:04:28;;;;;;;;;;;25.60;70.80;;;;;;9190641;19;20290;-68
2022/07/17 15:07:32;;;;;;;7.10;3.53;;;25.40;68.90;;;;;;9182827;19;19919;-68
2022/07/17 15:10:36;;;;;;;6.20;3.00;;;25.30;71.20;;;;;;9183174;19;20021;-68
2022/07/17 15:13:40;;;;;;;4.97;3.40;;;25.10;72.80;;;;;;9183586;19;20052;-68
2022/07/17 15:16:47;;;;;;;5.43;2.92;;;24.80;71.90;;;;;;9187071;19;20364;-69
2022/07/17 15:19:51;;;;;;;15.30;11.45;;;25.00;72.70;;;;;;9182503;19;20513;-69
2022/07/17 15:22:55;;;;;;;13.55;6.13;;;25.20;71.20;;;;;;9183173;19;20018;-68
2022/07/17 15:25:59;;;;;;;7.25;3.60;;;24.90;70.50;;;;;;9184225;19;20015;-68
2022/07/17 15:29:03;;;;;;;5.18;3.40;;;25.00;71.80;;;;;;9182008;19;20480;-69
2022/07/17 15:32:10;;;;;;;5.97;3.28;;;24.90;72.60;;;;;;9186551;19;20018;-69
2022/07/17 15:35:14;;;;;;;7.97;5.10;;;24.90;70.90;;;;;;9184218;19;20074;-68
2022/07/17 15:38:18;;;;;;;17.80;8.43;;;25.00;71.20;;;;;;9181791;19;20020;-68
2022/07/17 15:41:22;;;;;;;5.75;3.50;;;25.00;69.90;;;;;;9180574;19;20027;-68
2022/07/17 15:44:26;;;;;;;7.65;3.20;;;24.90;70.10;;;;;;9184670;19;20626;-69
2022/07/17 15:47:32;;;;;;;21.50;9.07;;;25.10;70.40;;;;;;9181550;19;20468;-69
2022/07/17 15:50:36;;;;;;;;;;;25.50;69.90;;;;;;9183056;19;20014;-68
2022/07/17 15:53:40;;;;;;;6.95;3.22;;;25.30;69.40;;;;;;9181883;19;19921;-68
2022/07/17 15:56:45;;;;;;;4.57;2.78;;;25.30;69.10;;;;;;9181663;19;20364;-68
2022/07/17 15:59:48;;;;;;;11.35;5.18;;;25.30;70.00;;;;;;9181961;19;20017;-68
2022/07/17 16:02:55;;;;;;;5.40;3.50;;;25.40;68.90;;;;;;9183567;19;20021;-69
2022/07/17 16:05:59;;;;;;;7.22;4.47;;;25.40;69.60;;;;;;9185012;19;20014;-69
2022/07/17 16:09:05;;;;;;;6.15;3.35;;;25.60;68.80;;;;;;9180346;19;20082;-68